Danville, Illinois
Current Conditions -  °F | °C
As of 12:35 AM on Wednesday 28 Jan 2015 (Local Time) from KDNV Reporting Station
Clear Clear  
Wind Chill: 20°   Ceiling: Unl
Heat Index: 20°   Visibility: 10mi
Dew Point: 17°   Wind: 0mph
Humidity: 91%   Direction: NA
Pressure: 30.25"   Gusts: NA
Location:  40.16°N, 87.63°W
Report Text: KDNV 280635Z AUTO 00000KT 10SM CLR M07/M08 A3025 RMK AO2 T10681081
Loading
Personal Weather Stations






























Interactive Weather Map New forecast layout! Learn more

10-Day Weather Forecast

Advertisements
Track Severe Weather on mobile